Latest Coastal Weather Observations for Arlington Reef

IDQ60701

Issued at 4:42 pm EST Thursday 30 March 2017 (issued every 10 minutes, with the page automatically refreshed every 10 minutes)

About coastal observations | Map of coastal stations | Coastal observations for QLD | Marine services | Other Formats
Station Details ID: 200879 Name: ARLINGTON REEF Lat: -16.72 Lon: 146.11 Height: 0.0 m
Data from the previous 72 hours. | See also: Recent months at Arlington Reef
Date/Time
EST
Temp
°C
Wind Pressure Rain since
9am
mm
Weather Cloud Vis
km
Sea
Height
m
Swell
Dir  Spd
kts
Gust
kts
hPa Trend Height
m
Period
s
Dir
30/04:30pm - N 15 18 1006.5 - - - - - - - - -
30/04:00pm - N 14 17 1006.5 - - - - - - - - -
30/03:30pm - N 14 17 1006.6 - - - - - - - - -
30/03:00pm - N 16 18 1006.6 - - - - - - - - -
30/02:30pm - N 16 19 1006.9 - - - - - - - - -
30/02:00pm - N 17 19 1006.9 - - - - - - - - -
30/01:30pm - N 16 18 1007.6 - - - - - - - - -
30/01:00pm - N 15 17 1008.2 - - - - - - - - -
30/12:30pm - NNW 16 18 1009.0 - - - - - - - - -
30/12:00pm - NNW 16 18 1009.3 - - - - - - - - -
30/11:30am - NNW 15 18 1009.5 - - - - - - - - -
30/11:00am - NNW 15 17 1009.9 - - - - - - - - -
30/10:30am - NNW 14 16 1010.3 - - - - - - - - -
30/10:00am - NNW 13 15 1010.3 - - - - - - - - -
30/09:30am - NNW 13 15 1010.2 - - - - - - - - -
30/09:00am - NNW 14 16 1010.2 - - - - - - - - -
30/08:30am - NNW 13 15 1010.2 - - - - - - - - -
30/08:00am - NNW 14 15 1009.9 - - - - - - - - -
30/07:30am - NNW 15 17 1009.7 - - - - - - - - -
30/07:00am - NNW 17 19 1009.2 - - - - - - - - -
30/06:30am - NNW 18 20 1008.7 - - - - - - - - -
30/06:00am - NNW 17 20 1008.5 - - - - - - - - -
30/05:30am - NNW 19 22 1008.2 - - - - - - - - -
30/05:00am - NNW 19 22 1007.7 - - - - - - - - -
30/04:30am - NNW 20 23 1007.5 - - - - - - - - -
30/04:00am - NNW 21 24 1007.3 - - - - - - - - -
30/03:30am - NNW 21 24 1006.8 - - - - - - - - -
30/03:00am - N 21 24 1006.7 - - - - - - - - -
30/02:30am - NNW 21 23 1006.8 - - - - - - - - -
30/02:00am - NNW 21 25 1007.0 - - - - - - - - -
30/01:30am - N 21 24 1007.1 - - - - - - - - -
30/01:00am - N 20 23 1007.2 - - - - - - - - -
30/12:30am - N 20 23 1007.6 - - - - - - - - -
30/12:00am - N 20 24 1007.6 - - - - - - - - -
 
Date/Time
EST
Temp
°C
Wind Pressure Rain since
9am
mm
Weather Cloud Vis
km
Sea
Height
m
Swell
Dir  Spd
kts
Gust
kts
hPa Trend Height
m
Period
s
Dir
29/11:30pm - N 22 25 1007.5 - - - - - - - - -
29/11:00pm - N 21 25 1007.5 - - - - - - - - -
29/10:30pm - N 22 26 1007.5 - - - - - - - - -
29/10:00pm - N 21 25 1007.4 - - - - - - - - -
29/09:30pm - N 19 23 1007.3 - - - - - - - - -
29/09:00pm - N 20 24 1006.9 - - - - - - - - -
29/08:30pm - N 20 24 1006.4 - - - - - - - - -
29/08:00pm - N 19 23 1005.9 - - - - - - - - -
29/07:30pm - N 21 26 1005.5 - - - - - - - - -
29/07:00pm - N 22 27 1004.9 - - - - - - - - -
29/06:30pm - N 21 26 1004.4 - - - - - - - - -
29/06:00pm - N 23 27 1003.7 - - - - - - - - -
29/05:30pm - N 23 27 1003.1 - - - - - - - - -
29/05:00pm - N 23 27 1003.0 - - - - - - - - -
29/04:30pm - N 23 27 1002.4 - - - - - - - - -
29/04:00pm - N 22 25 1002.5 - - - - - - - - -
29/03:30pm - N 21 25 1002.4 - - - - - - - - -
29/03:00pm - N 21 25 1002.6 - - - - - - - - -
29/02:30pm - N 20 23 1003.0 - - - - - - - - -
29/02:00pm - N 21 25 1003.1 - - - - - - - - -
29/01:30pm - N 21 24 1003.6 - - - - - - - - -
29/01:00pm - N 20 23 1004.1 - - - - - - - - -
29/12:30pm - N 20 23 1004.4 - - - - - - - - -
29/12:00pm - N 18 21 1005.0 - - - - - - - - -
29/11:30am - NNW 17 20 1005.3 - - - - - - - - -
29/11:00am - NNW 16 19 1005.8 - - - - - - - - -
29/10:30am - NNW 14 17 1006.1 - - - - - - - - -
29/10:00am - NNW 16 17 1006.0 - - - - - - - - -
29/09:30am - NNW 14 17 1006.0 - - - - - - - - -
29/09:00am - NNW 14 16 1006.0 - - - - - - - - -
29/08:30am - NNW 14 16 1005.6 - - - - - - - - -
29/08:00am - NNW 14 17 1005.4 - - - - - - - - -
29/07:30am - NNW 17 20 1004.8 - - - - - - - - -
29/07:00am - NNW 18 21 1004.5 - - - - - - - - -
29/06:30am - NNW 21 25 1003.9 - - - - - - - - -
29/06:00am - NNW 21 25 1003.4 - - - - - - - - -
29/05:30am - NNW 21 25 1003.0 - - - - - - - - -
29/05:00am - NNW 19 23 1003.0 - - - - - - - - -
29/04:30am - NNW 20 25 1002.6 - - - - - - - - -
29/04:00am - NNW 22 26 1002.3 - - - - - - - - -
29/03:30am - NNW 22 27 1002.3 - - - - - - - - -
29/03:00am - NNW 23 28 1002.3 - - - - - - - - -
29/02:30am - NNW 23 27 1002.4 - - - - - - - - -
29/02:00am - NNW 24 29 1002.4 - - - - - - - - -
29/01:30am - NNW 25 28 1002.6 - - - - - - - - -
29/01:00am - N 23 28 1002.7 - - - - - - - - -
29/12:30am - NNW 23 28 1002.5 - - - - - - - - -
29/12:00am - NNW 23 27 1002.8 - - - - - - - - -
 
Date/Time
EST
Temp
°C
Wind Pressure Rain since
9am
mm
Weather Cloud Vis
km
Sea
Height
m
Swell
Dir  Spd
kts
Gust
kts
hPa Trend Height
m
Period
s
Dir
28/11:30pm - NNW 25 31 1002.7 - - - - - - - - -
28/11:00pm - NNW 25 29 1003.0 - - - - - - - - -
28/10:30pm - NNW 23 28 1003.6 - - - - - - - - -
28/10:00pm - NNW 24 29 1003.4 - - - - - - - - -
28/09:30pm - NNW 23 29 1003.4 - - - - - - - - -
28/09:00pm - N 23 29 1002.9 - - - - - - - - -
28/08:30pm - N 23 27 1002.6 - - - - - - - - -
28/08:00pm - N 24 28 1002.3 - - - - - - - - -
28/07:30pm - N 24 29 1001.9 - - - - - - - - -
28/07:00pm - N 23 27 1001.6 - - - - - - - - -
28/06:30pm - N 23 27 1001.2 - - - - - - - - -
28/06:00pm - N 21 25 1000.8 - - - - - - - - -
28/05:30pm - N 22 26 1000.4 - - - - - - - - -
28/05:00pm - N 21 24 1000.1 - - - - - - - - -
28/04:30pm - N 18 21 1000.1 - - - - - - - - -
28/04:00pm - N 19 23 1000.0 - - - - - - - - -
28/03:30pm - N 17 19 1000.3 - - - - - - - - -
28/03:00pm - N 15 17 1000.4 - - - - - - - - -
28/02:30pm - NNW 13 15 1001.0 - - - - - - - - -
28/02:00pm - NNW 14 15 1001.3 - - - - - - - - -
28/01:30pm - NW 13 15 1001.7 - - - - - - - - -
28/01:00pm - NW 15 17 1002.2 - - - - - - - - -
28/12:30pm - NW 15 17 1002.7 - - - - - - - - -
28/12:00pm - NW 12 15 1003.2 - - - - - - - - -
28/11:30am - NW 13 15 1003.8 - - - - - - - - -
28/11:00am - WNW 15 17 1004.4 - - - - - - - - -
28/10:30am - WNW 13 16 1004.6 - - - - - - - - -
28/10:00am - WNW 13 15 1004.9 - - - - - - - - -
28/09:30am - WNW 12 14 1005.2 - - - - - - - - -
28/09:00am - WNW 13 16 1005.2 - - - - - - - - -
28/08:30am - W 12 14 1005.0 - - - - - - - - -
28/08:00am - WNW 12 14 1004.8 - - - - - - - - -
28/07:30am - W 14 16 1004.4 - - - - - - - - -
28/07:00am - W 15 17 1004.1 - - - - - - - - -
28/06:30am - W 14 17 1003.9 - - - - - - - - -
28/06:00am - WNW 14 18 1003.6 - - - - - - - - -
28/05:30am - W 17 20 1003.3 - - - - - - - - -
28/05:00am - W 14 18 1003.1 - - - - - - - - -
28/04:30am - W 15 18 1002.9 - - - - - - - - -
28/04:00am - W 12 15 1003.0 - - - - - - - - -
28/03:30am - W 13 15 1003.0 - - - - - - - - -
28/03:00am - WSW 8 9 1003.2 - - - - - - - - -
28/02:30am - W 7 9 1003.5 - - - - - - - - -
28/02:00am - W 6 7 1003.6 - - - - - - - - -
28/01:30am - WSW 6 7 1004.0 - - - - - - - - -
28/01:00am - WSW 5 5 1004.4 - - - - - - - - -
28/12:30am - NNE 4 4 1004.6 - - - - - - - - -
28/12:00am - CALM 0 0 1004.8 - - - - - - - - -
 
Date/Time
EST
Temp
°C
Wind Pressure Rain since
9am
mm
Weather Cloud Vis
km
Sea
Height
m
Swell
Dir  Spd
kts
Gust
kts
hPa Trend Height
m
Period
s
Dir
27/11:30pm - NE 3 4 1004.9 - - - - - - - - -
27/11:00pm - E 4 5 1005.2 - - - - - - - - -
27/10:30pm - E 5 6 1005.5 - - - - - - - - -
27/10:00pm - E 6 7 1005.4 - - - - - - - - -
27/09:30pm - ENE 5 6 1005.1 - - - - - - - - -
27/09:00pm - NNE 6 7 1005.0 - - - - - - - - -
27/08:30pm - NNE 8 9 1004.5 - - - - - - - - -
27/08:00pm - NNE 7 9 1004.6 - - - - - - - - -
27/07:30pm - NE 7 8 1004.5 - - - - - - - - -
27/07:00pm - NNE 7 9 1004.2 - - - - - - - - -
27/06:30pm - NNE 8 9 1003.6 - - - - - - - - -
27/06:00pm - NNE 9 10 1003.4 - - - - - - - - -
27/05:30pm - NNE 9 10 1003.3 - - - - - - - - -
27/05:00pm - NNE 9 10 1003.2 - - - - - - - - -

Other Formats:

Comma delimited format used in spreadsheet applications
http://www.bom.gov.au/fwo/IDQ60701/IDQ60701.94284.axf

JavaScript Object Notation format (JSON) in row-major order
http://www.bom.gov.au/fwo/IDQ60701/IDQ60701.94284.json